Time;durP1;ratioP1;P1;durP2;ratioP2;P2;SDS_P1;SDS_P2;PMS_P1;PMS_P2;Temp;Humidity;BMP_temperature;BMP_pressure;BME280_temperature;BME280_humidity;BME280_pressure;Samples;Min_cycle;Max_cycle;Signal;HPM_P1;HPM_P2
2023/10/26 00:02:43;;;;;;;14.23;13.03;;;9.60;82.70;;;;;;6242236;28;20813;-85
2023/10/26 00:05:47;;;;;;;14.37;13.03;;;9.70;82.70;;;;;;6248575;28;20253;-84
2023/10/26 00:08:51;;;;;;;13.40;12.30;;;9.70;82.60;;;;;;6251113;28;20234;-85
2023/10/26 00:11:54;;;;;;;14.40;13.10;;;9.70;82.70;;;;;;6261652;28;20234;-85
2023/10/26 00:14:59;;;;;;;14.67;13.40;;;9.70;82.50;;;;;;6249199;28;20245;-84
2023/10/26 00:18:02;;;;;;;13.80;12.60;;;9.70;82.70;;;;;;6249685;28;20238;-82
2023/10/26 00:21:06;;;;;;;14.37;13.17;;;9.70;82.80;;;;;;6246124;28;20229;-81
2023/10/26 00:24:09;;;;;;;14.90;13.63;;;9.70;82.80;;;;;;6262372;28;20743;-85
2023/10/26 00:27:13;;;;;;;14.23;13.13;;;9.70;82.70;;;;;;6250097;28;20241;-85
2023/10/26 00:30:18;;;;;;;14.20;12.90;;;9.70;82.80;;;;;;6254913;28;20242;-82
2023/10/26 00:33:23;;;;;;;14.27;12.97;;;9.70;83.00;;;;;;6258817;28;20231;-79
2023/10/26 00:36:26;;;;;;;13.50;12.50;;;9.70;83.00;;;;;;6284437;28;20265;-85
2023/10/26 00:39:32;;;;;;;16.13;14.63;;;9.70;83.00;;;;;;6259369;28;20238;-82
2023/10/26 00:42:35;;;;;;;15.13;13.83;;;9.60;83.20;;;;;;6243251;28;20273;-84
2023/10/26 00:45:39;;;;;;;15.27;13.93;;;9.60;83.30;;;;;;6248242;28;20262;-84
2023/10/26 00:48:43;;;;;;;16.50;14.90;;;9.60;83.40;;;;;;6278797;28;20236;-78
2023/10/26 00:51:50;;;;;;;16.13;14.10;;;9.60;83.60;;;;;;6271230;28;20264;-81
2023/10/26 00:54:54;;;;;;;15.07;13.60;;;9.60;83.60;;;;;;6279322;28;20249;-78
2023/10/26 00:57:57;;;;;;;15.70;14.30;;;9.50;83.80;;;;;;6280381;28;20253;-79
2023/10/26 01:01:02;;;;;;;15.50;14.23;;;9.50;83.70;;;;;;6275425;28;20228;-79
2023/10/26 01:04:07;;;;;;;16.73;15.13;;;9.50;84.00;;;;;;6277620;28;20222;-83
2023/10/26 01:07:10;;;;;;;16.27;14.87;;;9.50;84.00;;;;;;6277511;28;20214;-82
2023/10/26 01:10:13;;;;;;;15.63;14.43;;;9.50;84.00;;;;;;6279005;28;20234;-81
2023/10/26 01:13:17;;;;;;;16.40;15.00;;;9.50;84.00;;;;;;6273930;28;20331;-81
2023/10/26 01:16:23;;;;;;;15.07;13.73;;;9.50;84.00;;;;;;6279789;28;20226;-79
2023/10/26 01:19:38;;;;;;;15.80;14.30;;;9.50;84.10;;;;;;6274255;28;20444;-80
2023/10/26 01:22:43;;;;;;;16.93;15.23;;;9.50;84.10;;;;;;6273543;28;20230;-84
2023/10/26 01:25:53;;;;;;;17.03;15.37;;;9.40;84.30;;;;;;6279022;28;20273;-80
2023/10/26 01:28:56;;;;;;;18.53;16.63;;;9.50;84.30;;;;;;6272954;28;20223;-80
2023/10/26 01:32:00;;;;;;;17.30;15.70;;;9.40;84.60;;;;;;6282209;28;20222;-82
2023/10/26 01:35:04;;;;;;;17.13;15.47;;;9.50;84.30;;;;;;6286943;28;20230;-80
2023/10/26 01:38:09;;;;;;;15.30;13.97;;;9.50;84.30;;;;;;6277505;28;20226;-80
2023/10/26 01:41:12;;;;;;;17.87;16.17;;;9.50;84.30;;;;;;6285168;28;20242;-81
2023/10/26 01:44:15;;;;;;;17.57;15.87;;;9.50;84.40;;;;;;6294370;28;20447;-77
2023/10/26 01:47:20;;;;;;;18.13;16.47;;;9.50;84.30;;;;;;6274862;28;20239;-82
2023/10/26 01:50:26;;;;;;;17.40;15.60;;;9.50;84.40;;;;;;6284020;28;20237;-80
2023/10/26 01:53:31;;;;;;;18.00;16.30;;;9.50;84.40;;;;;;6286373;28;20245;-83
2023/10/26 01:56:34;;;;;;;18.10;16.47;;;9.50;84.60;;;;;;6284783;28;20413;-87
2023/10/26 01:59:37;;;;;;;16.83;15.33;;;9.40;84.80;;;;;;6273438;28;20246;-80
2023/10/26 02:02:41;;;;;;;18.07;16.23;;;9.40;84.90;;;;;;6278955;28;20256;-83
2023/10/26 02:05:44;;;;;;;17.67;16.17;;;9.50;85.00;;;;;;6279954;28;20231;-81
2023/10/26 02:08:49;;;;;;;17.40;15.90;;;9.50;84.90;;;;;;6278738;28;20223;-81
2023/10/26 02:11:52;;;;;;;17.37;15.77;;;9.50;84.80;;;;;;6266944;28;20225;-81
2023/10/26 02:14:56;;;;;;;18.40;16.60;;;9.50;84.80;;;;;;6279745;28;20248;-79
2023/10/26 02:18:01;;;;;;;18.27;16.40;;;9.50;84.70;;;;;;6294619;28;20281;-79
2023/10/26 02:21:05;;;;;;;18.90;17.17;;;9.50;84.70;;;;;;6285469;28;20224;-79
2023/10/26 02:24:10;;;;;;;18.43;16.70;;;9.50;84.80;;;;;;6282110;28;20233;-80
2023/10/26 02:27:14;;;;;;;16.50;15.10;;;9.50;84.90;;;;;;6282711;28;20233;-84
2023/10/26 02:30:17;;;;;;;18.53;16.70;;;9.50;84.80;;;;;;6243000;28;20289;-84
2023/10/26 02:33:20;;;;;;;19.43;17.53;;;9.40;85.00;;;;;;6250772;28;20378;-82
2023/10/26 02:36:24;;;;;;;18.93;17.03;;;9.50;85.10;;;;;;6251067;28;20608;-83
2023/10/26 02:39:28;;;;;;;17.63;16.07;;;9.40;85.20;;;;;;6247711;28;20305;-83
2023/10/26 02:42:33;;;;;;;18.77;16.93;;;9.50;85.20;;;;;;6260143;28;20234;-86
2023/10/26 02:45:36;;;;;;;18.73;16.83;;;9.50;85.10;;;;;;6234238;28;20243;-83
2023/10/26 02:48:41;;;;;;;18.23;16.63;;;9.50;85.10;;;;;;6203009;28;20231;-83
2023/10/26 02:51:44;;;;;;;18.20;16.37;;;9.50;85.10;;;;;;6210333;28;20239;-85
2023/10/26 02:54:49;;;;;;;20.03;18.03;;;9.50;85.20;;;;;;6217428;28;20236;-83
2023/10/26 02:57:52;;;;;;;18.73;16.83;;;9.50;85.20;;;;;;6217050;28;20734;-84
2023/10/26 03:00:56;;;;;;;17.10;15.60;;;9.50;85.30;;;;;;6225035;28;20939;-83
2023/10/26 03:03:59;;;;;;;18.63;17.03;;;9.50;85.30;;;;;;6216939;28;20326;-85
2023/10/26 03:07:03;;;;;;;19.83;17.80;;;9.60;85.30;;;;;;6211320;28;20403;-83
2023/10/26 03:10:10;;;;;;;20.00;18.10;;;9.60;85.20;;;;;;6217093;28;20227;-85
2023/10/26 03:13:13;;;;;;;19.43;17.53;;;9.60;85.20;;;;;;6217181;28;20242;-84
2023/10/26 03:16:16;;;;;;;20.17;18.17;;;9.60;85.20;;;;;;6212471;28;20232;-83
2023/10/26 03:19:20;;;;;;;21.40;19.23;;;9.60;85.20;;;;;;6215121;28;20254;-84
2023/10/26 03:22:23;;;;;;;19.40;17.60;;;9.60;85.40;;;;;;6213707;28;20258;-83
2023/10/26 03:25:27;;;;;;;18.90;17.23;;;9.60;85.20;;;;;;6215031;28;20235;-84
2023/10/26 03:28:30;;;;;;;19.50;17.60;;;9.60;85.10;;;;;;6215870;28;20254;-86
2023/10/26 03:31:36;;;;;;;18.90;17.00;;;9.60;85.20;;;;;;6208663;28;20908;-82
2023/10/26 03:34:39;;;;;;;17.50;15.97;;;9.60;85.20;;;;;;6221945;28;20231;-82
2023/10/26 03:37:43;;;;;;;17.03;15.47;;;9.70;85.10;;;;;;6224460;28;20673;-84
2023/10/26 03:40:50;;;;;;;17.63;16.03;;;9.70;85.00;;;;;;6215143;28;20235;-81
2023/10/26 03:43:54;;;;;;;17.20;15.60;;;9.70;85.00;;;;;;6217188;28;20246;-84
2023/10/26 03:46:58;;;;;;;17.97;16.20;;;9.60;85.00;;;;;;6235938;28;20239;-85
2023/10/26 03:50:01;;;;;;;19.30;17.40;;;9.60;84.90;;;;;;6243736;28;20238;-83
2023/10/26 03:53:04;;;;;;;17.87;16.13;;;9.60;85.00;;;;;;6238792;28;20231;-83
2023/10/26 03:56:10;;;;;;;16.93;15.33;;;9.60;85.00;;;;;;6238984;28;21065;-82
2023/10/26 03:59:13;;;;;;;16.67;14.97;;;9.60;85.10;;;;;;6240141;28;20237;-84
2023/10/26 04:02:16;;;;;;;16.50;15.00;;;9.60;85.20;;;;;;6238612;28;20250;-84
2023/10/26 04:05:19;;;;;;;16.27;14.83;;;9.60;84.80;;;;;;6237270;28;20312;-84
2023/10/26 04:08:22;;;;;;;15.63;14.13;;;9.60;84.90;;;;;;6225316;28;20231;-84
2023/10/26 04:11:27;;;;;;;13.93;12.83;;;9.50;85.10;;;;;;6230661;28;20234;-84
2023/10/26 04:14:32;;;;;;;15.60;14.17;;;9.50;85.10;;;;;;6246368;28;20324;-84
2023/10/26 04:17:35;;;;;;;15.37;13.97;;;9.50;85.10;;;;;;6222807;28;1170713;-84
2023/10/26 04:20:38;;;;;;;15.70;14.30;;;9.50;85.30;;;;;;6245220;28;20235;-85
2023/10/26 04:23:41;;;;;;;15.27;13.80;;;9.60;85.30;;;;;;6256351;28;20258;-83
2023/10/26 04:26:46;;;;;;;15.23;13.87;;;9.60;85.20;;;;;;6259438;28;20238;-82
2023/10/26 04:29:52;;;;;;;15.50;14.00;;;9.60;85.30;;;;;;6265162;28;20242;-81
2023/10/26 04:32:55;;;;;;;13.93;12.83;;;9.60;85.40;;;;;;6272553;28;20612;-84
2023/10/26 04:36:00;;;;;;;16.07;14.67;;;9.60;85.30;;;;;;6251056;28;20242;-85
2023/10/26 04:39:05;;;;;;;16.37;14.77;;;9.60;85.30;;;;;;6247919;28;20226;-84
2023/10/26 04:42:09;;;;;;;14.70;13.50;;;9.60;85.30;;;;;;6244797;28;20256;-84
2023/10/26 04:45:13;;;;;;;15.13;13.83;;;9.60;85.30;;;;;;6243849;28;20242;-83
2023/10/26 04:48:16;;;;;;;14.50;13.20;;;9.70;85.20;;;;;;6218802;28;20228;-84
2023/10/26 04:51:19;;;;;;;14.20;13.10;;;9.70;85.20;;;;;;6221160;28;20231;-82
2023/10/26 04:54:23;;;;;;;15.43;14.13;;;9.60;85.40;;;;;;6211388;28;20240;-84
2023/10/26 04:57:28;;;;;;;14.30;13.10;;;9.60;85.40;;;;;;6210617;28;20246;-85
2023/10/26 05:00:32;;;;;;;14.47;13.30;;;9.70;85.30;;;;;;6213153;28;20250;-84
2023/10/26 05:03:37;;;;;;;15.30;14.00;;;9.70;85.20;;;;;;6222116;28;20239;-83
2023/10/26 05:06:40;;;;;;;16.87;15.27;;;9.70;85.20;;;;;;6237311;28;20235;-83
2023/10/26 05:09:43;;;;;;;14.43;13.23;;;9.80;85.20;;;;;;6238040;28;20234;-85
2023/10/26 05:12:47;;;;;;;15.77;14.43;;;9.70;85.10;;;;;;6241188;28;20246;-83
2023/10/26 05:15:51;;;;;;;16.03;14.43;;;9.70;85.10;;;;;;6245322;28;20345;-84
2023/10/26 05:18:54;;;;;;;15.10;13.63;;;9.70;85.30;;;;;;6239535;28;20229;-84
2023/10/26 05:21:57;;;;;;;15.33;13.93;;;9.70;85.40;;;;;;6237914;28;20253;-83
2023/10/26 05:25:05;;;;;;;15.40;14.10;;;9.70;85.50;;;;;;6245530;28;20240;-82
2023/10/26 05:28:11;;;;;;;15.47;14.07;;;9.60;85.60;;;;;;6246899;28;20877;-84
2023/10/26 05:31:20;;;;;;;14.03;12.90;;;9.70;85.50;;;;;;6239158;28;20235;-84
2023/10/26 05:34:23;;;;;;;15.37;13.90;;;9.70;85.40;;;;;;6248736;28;20273;-84
2023/10/26 05:37:27;;;;;;;14.27;12.97;;;9.70;85.20;;;;;;6240076;28;20718;-84
2023/10/26 05:40:30;;;;;;;14.77;13.47;;;9.70;85.20;;;;;;6241018;28;20246;-83
2023/10/26 05:43:35;;;;;;;15.23;13.80;;;9.70;85.20;;;;;;6250398;28;20631;-84
2023/10/26 05:46:38;;;;;;;15.50;14.10;;;9.70;85.20;;;;;;6238720;28;20273;-84
2023/10/26 05:49:41;;;;;;;15.40;14.00;;;9.70;85.30;;;;;;6243608;28;20238;-84
2023/10/26 05:52:44;;;;;;;15.33;13.83;;;9.70;85.20;;;;;;6234325;28;20234;-84
2023/10/26 05:55:57;;;;;;;12.80;11.57;;;9.60;85.30;;;;;;6242539;28;20698;-84
2023/10/26 05:59:02;;;;;;;14.70;13.50;;;9.60;85.40;;;;;;6235363;28;20777;-84
2023/10/26 06:02:05;;;;;;;16.23;14.73;;;9.60;85.50;;;;;;6222685;28;20258;-83
2023/10/26 06:05:09;;;;;;;16.03;14.50;;;9.60;85.50;;;;;;6241978;28;20730;-83
2023/10/26 06:08:13;;;;;;;14.77;13.43;;;9.60;85.60;;;;;;6237753;28;20632;-84
2023/10/26 06:11:17;;;;;;;13.73;12.57;;;9.60;85.60;;;;;;6239272;28;20242;-84
2023/10/26 06:14:22;;;;;;;14.23;13.03;;;9.70;85.60;;;;;;6249750;28;20824;-84
2023/10/26 06:17:25;;;;;;;14.00;12.70;;;9.60;85.80;;;;;;6249867;28;20249;-82
2023/10/26 06:20:29;;;;;;;14.07;12.80;;;9.60;85.70;;;;;;6239876;28;20448;-84
2023/10/26 06:23:33;;;;;;;12.43;11.20;;;9.60;85.70;;;;;;6238657;28;20304;-84
2023/10/26 06:26:36;;;;;;;13.57;12.47;;;9.70;85.50;;;;;;6244251;28;20281;-83
2023/10/26 06:29:41;;;;;;;12.93;11.93;;;9.70;85.50;;;;;;6243395;28;20231;-83
2023/10/26 06:32:44;;;;;;;13.30;12.17;;;9.70;85.50;;;;;;6247265;28;20300;-83
2023/10/26 06:35:48;;;;;;;14.50;13.20;;;9.70;85.60;;;;;;6257286;28;20249;-83
2023/10/26 06:38:52;;;;;;;12.57;11.57;;;9.70;85.70;;;;;;6276940;28;20222;-81
2023/10/26 06:41:56;;;;;;;13.47;12.37;;;9.70;85.70;;;;;;6277197;28;20225;-82
2023/10/26 06:45:02;;;;;;;14.07;12.93;;;9.70;85.60;;;;;;6286031;28;20241;-84
2023/10/26 06:48:07;;;;;;;13.47;12.30;;;9.70;85.70;;;;;;6239277;28;20238;-83
2023/10/26 06:51:10;;;;;;;14.20;12.87;;;9.70;85.70;;;;;;6220331;28;20243;-83
2023/10/26 06:54:15;;;;;;;13.17;12.13;;;9.70;85.70;;;;;;6238374;28;20254;-82
2023/10/26 06:57:18;;;;;;;12.67;11.67;;;9.70;85.70;;;;;;6240497;28;20393;-84
2023/10/26 07:00:23;;;;;;;12.03;11.10;;;9.70;85.70;;;;;;6249917;28;20292;-83
2023/10/26 07:03:27;;;;;;;13.23;12.13;;;9.70;85.70;;;;;;6247606;28;20235;-85
2023/10/26 07:06:31;;;;;;;13.93;12.53;;;9.70;85.70;;;;;;6246882;28;20234;-84
2023/10/26 07:09:36;;;;;;;12.67;11.60;;;9.80;85.70;;;;;;6255953;28;20234;-83
2023/10/26 07:12:39;;;;;;;13.97;12.60;;;9.80;85.70;;;;;;6263180;28;20772;-82
2023/10/26 07:15:46;;;;;;;13.53;12.17;;;9.80;85.50;;;;;;6254429;28;20238;-82
2023/10/26 07:18:50;;;;;;;12.97;11.97;;;9.80;85.50;;;;;;6234202;28;20235;-83
2023/10/26 07:21:53;;;;;;;13.27;12.17;;;9.80;85.20;;;;;;6227762;28;20235;-83
2023/10/26 07:24:57;;;;;;;13.70;12.40;;;9.80;85.30;;;;;;6245147;28;20241;-82
2023/10/26 07:28:01;;;;;;;14.17;13.00;;;9.70;85.40;;;;;;6245721;28;20801;-84
2023/10/26 07:31:05;;;;;;;13.43;12.33;;;9.70;85.50;;;;;;6243770;28;20243;-83
2023/10/26 07:34:09;;;;;;;14.03;12.80;;;9.80;85.40;;;;;;6239375;28;20239;-83
2023/10/26 07:37:12;;;;;;;12.53;11.60;;;9.80;85.20;;;;;;6236635;28;20266;-81
2023/10/26 07:40:16;;;;;;;13.83;12.63;;;9.80;85.30;;;;;;6251426;28;20277;-82
2023/10/26 07:43:33;;;;;;;15.17;13.77;;;9.80;85.10;;;;;;6247598;28;20249;-82
2023/10/26 07:46:38;;;;;;;13.97;12.77;;;9.80;85.30;;;;;;6228138;28;20231;-86
2023/10/26 07:49:42;;;;;;;14.30;12.97;;;9.80;85.30;;;;;;6240889;28;20257;-85
2023/10/26 07:52:45;;;;;;;13.33;12.23;;;9.80;85.30;;;;;;6244333;28;20241;-84
2023/10/26 07:55:48;;;;;;;13.77;12.77;;;9.90;85.40;;;;;;6243524;28;20308;-84
2023/10/26 07:58:52;;;;;;;14.00;12.70;;;10.00;85.20;;;;;;6233501;28;20235;-84
2023/10/26 08:01:57;;;;;;;13.40;12.23;;;10.00;85.30;;;;;;6254797;28;20240;-84
2023/10/26 08:05:00;;;;;;;14.87;13.57;;;10.00;85.20;;;;;;6251461;28;20235;-84
2023/10/26 08:08:04;;;;;;;15.60;14.20;;;10.00;85.00;;;;;;6242003;28;20231;-83
2023/10/26 08:11:12;;;;;;;14.37;12.97;;;10.00;84.90;;;;;;6236527;28;20315;-84
2023/10/26 08:14:16;;;;;;;13.47;12.33;;;10.10;84.70;;;;;;6226219;28;20239;-82
2023/10/26 08:17:40;;;;;;;15.13;13.47;;;10.10;84.60;;;;;;6270124;28;20484;-83
2023/10/26 08:20:51;;;;;;;13.07;11.87;;;10.10;84.50;;;;;;6256086;28;20749;-84
2023/10/26 08:23:54;;;;;;;13.97;12.77;;;10.10;84.60;;;;;;6256505;28;20238;-83
2023/10/26 08:26:57;;;;;;;14.00;12.83;;;10.00;84.70;;;;;;6272687;28;20242;-83
2023/10/26 08:30:01;;;;;;;13.83;12.63;;;10.10;84.80;;;;;;6265601;28;20226;-86
2023/10/26 08:33:06;;;;;;;13.50;12.37;;;10.00;84.70;;;;;;6260764;28;20250;-84
2023/10/26 08:36:09;;;;;;;12.67;11.57;;;10.00;84.80;;;;;;6219950;28;20226;-84
2023/10/26 08:39:13;;;;;;;13.67;12.47;;;10.10;84.90;;;;;;6236169;28;20245;-84
2023/10/26 08:42:17;;;;;;;14.13;12.73;;;10.10;85.00;;;;;;6260906;28;20227;-83
2023/10/26 08:45:27;;;;;;;14.63;13.30;;;10.10;85.10;;;;;;6242505;28;20250;-84
2023/10/26 08:48:38;;;;;;;13.93;12.63;;;10.10;85.00;;;;;;6241445;28;20238;-84
2023/10/26 08:51:41;;;;;;;14.10;12.90;;;10.20;85.00;;;;;;6245509;28;20239;-83
2023/10/26 08:54:47;;;;;;;14.37;13.17;;;10.20;85.00;;;;;;6239749;28;20250;-82
2023/10/26 08:57:51;;;;;;;13.77;12.63;;;10.20;84.70;;;;;;6243325;28;20285;-84
2023/10/26 09:00:55;;;;;;;13.67;12.47;;;10.20;84.70;;;;;;6238725;28;20244;-85
2023/10/26 09:04:08;;;;;;;15.23;13.87;;;10.30;84.60;;;;;;6258772;28;20807;-86
2023/10/26 09:07:13;;;;;;;15.03;13.67;;;10.30;84.70;;;;;;6240768;28;20243;-83
2023/10/26 09:10:29;;;;;;;14.07;12.87;;;10.30;84.50;;;;;;6232534;28;20732;-84
2023/10/26 09:13:34;;;;;;;15.30;12.77;;;10.30;84.60;;;;;;6248787;28;20247;-84
2023/10/26 09:16:38;;;;;;;14.00;12.70;;;10.30;84.60;;;;;;6235345;28;20245;-85
2023/10/26 09:19:46;;;;;;;12.83;11.77;;;10.40;84.30;;;;;;6242263;28;20335;-84
2023/10/26 09:22:49;;;;;;;11.80;10.90;;;10.40;84.30;;;;;;6231020;28;20234;-82
2023/10/26 09:25:57;;;;;;;14.60;13.20;;;10.40;84.30;;;;;;6237589;28;20226;-83
2023/10/26 09:29:01;;;;;;;12.60;11.57;;;10.50;84.10;;;;;;6238117;28;20238;-84
2023/10/26 09:32:05;;;;;;;14.13;12.93;;;10.50;84.00;;;;;;6239054;28;20318;-84
2023/10/26 09:35:27;;;;;;;14.10;12.87;;;10.50;84.10;;;;;;6240537;28;20694;-84
2023/10/26 09:38:35;;;;;;;13.10;12.07;;;10.50;84.20;;;;;;6238920;28;20238;-84
2023/10/26 09:41:38;;;;;;;12.87;11.70;;;10.50;84.30;;;;;;6250804;28;20238;-82
2023/10/26 09:44:42;;;;;;;11.90;10.90;;;10.50;84.50;;;;;;6259731;28;20291;-84
2023/10/26 09:47:46;;;;;;;13.70;12.53;;;10.60;83.90;;;;;;6241419;28;20238;-83
2023/10/26 09:50:53;;;;;;;12.80;11.70;;;10.60;83.70;;;;;;6255159;28;20223;-82
2023/10/26 09:53:57;;;;;;;12.77;11.53;;;10.60;83.80;;;;;;6255310;28;20293;-84
2023/10/26 09:57:05;;;;;;;10.77;10.03;;;10.60;84.00;;;;;;6245210;28;20257;-83
2023/10/26 10:00:11;;;;;;;11.33;10.43;;;10.60;84.20;;;;;;6256765;28;20305;-82
2023/10/26 10:03:16;;;;;;;11.77;10.87;;;10.70;84.10;;;;;;6242942;28;20249;-82
2023/10/26 10:06:45;;;;;;;11.90;10.90;;;10.70;84.10;;;;;;6236394;28;20667;-83
2023/10/26 10:10:05;;;;;;;10.63;9.73;;;10.80;83.90;;;;;;6257263;28;20357;-85
2023/10/26 10:13:08;;;;;;;11.40;10.50;;;10.80;84.00;;;;;;6246796;28;20254;-85
2023/10/26 10:16:45;;;;;;;9.97;9.27;;;10.80;83.90;;;;;;6244173;28;20253;-84
2023/10/26 10:20:27;;;;;;;10.77;9.87;;;10.80;83.70;;;;;;6234530;28;20748;-85
2023/10/26 10:23:32;;;;;;;10.07;9.00;;;10.90;83.70;;;;;;6247798;28;20312;-82
2023/10/26 10:27:08;;;;;;;10.73;9.93;;;10.80;83.50;;;;;;6248314;28;20247;-82
2023/10/26 10:30:12;;;;;;;9.10;8.40;;;10.90;83.40;;;;;;6249014;28;20304;-85
2023/10/26 10:33:23;;;;;;;10.97;9.87;;;10.90;83.40;;;;;;6252407;28;20245;-85
2023/10/26 10:36:26;;;;;;;8.83;8.23;;;11.00;83.30;;;;;;6252597;28;20321;-83
2023/10/26 10:39:32;;;;;;;10.37;9.47;;;11.00;83.40;;;;;;6253187;28;20857;-83
2023/10/26 10:42:35;;;;;;;9.90;9.13;;;11.00;83.40;;;;;;6251528;28;20613;-82
2023/10/26 10:45:39;;;;;;;11.00;10.20;;;11.00;83.00;;;;;;6256844;28;20241;-83
2023/10/26 10:48:59;;;;;;;9.23;8.60;;;11.00;82.90;;;;;;6241341;28;20231;-85
2023/10/26 10:52:13;;;;;;;10.13;9.23;;;11.10;83.00;;;;;;6230905;28;20757;-84
2023/10/26 10:55:24;;;;;;;11.10;10.20;;;11.10;82.60;;;;;;6274677;28;20245;-81
2023/10/26 10:58:37;;;;;;;13.03;11.97;;;11.10;82.70;;;;;;6277742;28;20273;-78
2023/10/26 11:01:40;;;;;;;12.70;11.60;;;11.10;82.50;;;;;;6276549;28;20254;-81
2023/10/26 11:04:53;;;;;;;13.13;12.07;;;11.10;82.40;;;;;;6280900;28;20292;-82
2023/10/26 11:08:11;;;;;;;14.40;13.10;;;11.10;82.80;;;;;;6262867;28;20210;-81
2023/10/26 11:11:27;;;;;;;14.77;13.53;;;11.10;82.90;;;;;;6282051;28;20215;-81
2023/10/26 11:14:30;;;;;;;13.07;11.97;;;11.10;82.40;;;;;;6285660;28;20226;-86
2023/10/26 11:17:33;;;;;;;15.70;14.27;;;11.10;82.40;;;;;;6266126;28;20253;-82
2023/10/26 11:20:38;;;;;;;15.00;13.70;;;11.10;82.00;;;;;;6257795;28;20248;-82
2023/10/26 11:23:41;;;;;;;17.30;14.87;;;11.10;82.20;;;;;;6255166;28;20266;-84
2023/10/26 11:27:06;;;;;;;15.77;14.20;;;11.10;82.30;;;;;;6250615;28;20266;-83
2023/10/26 11:30:10;;;;;;;14.90;13.70;;;11.00;82.60;;;;;;6254681;28;20281;-82
2023/10/26 11:33:29;;;;;;;15.93;14.53;;;11.10;82.10;;;;;;6255396;28;20231;-82
2023/10/26 11:36:33;;;;;;;13.13;12.13;;;11.10;82.30;;;;;;6251673;28;20785;-82
2023/10/26 11:39:36;;;;;;;14.60;13.40;;;11.10;82.40;;;;;;6241197;28;20300;-83
2023/10/26 11:42:50;;;;;;;15.40;14.10;;;11.10;82.10;;;;;;6244151;28;20235;-84
2023/10/26 11:45:53;;;;;;;13.87;12.67;;;11.10;82.10;;;;;;6225855;28;20239;-86
2023/10/26 11:48:56;;;;;;;15.63;14.33;;;11.10;82.30;;;;;;6239425;28;20235;-84
2023/10/26 11:51:59;;;;;;;14.00;12.80;;;11.10;82.00;;;;;;6240872;28;20310;-83
2023/10/26 11:55:04;;;;;;;15.43;14.13;;;11.10;82.00;;;;;;6230561;28;20235;-84
2023/10/26 11:58:09;;;;;;;13.83;12.53;;;11.10;81.70;;;;;;6234079;28;20227;-84
2023/10/26 12:01:12;;;;;;;14.70;13.30;;;11.10;82.10;;;;;;6219382;28;20242;-84
2023/10/26 12:04:15;;;;;;;14.50;13.10;;;11.10;82.00;;;;;;6231198;28;20236;-82
2023/10/26 12:07:18;;;;;;;13.27;12.07;;;11.10;81.70;;;;;;6238608;28;20285;-84
2023/10/26 12:10:23;;;;;;;14.33;13.03;;;11.00;81.80;;;;;;6239859;28;20312;-82
2023/10/26 12:13:28;;;;;;;12.67;11.67;;;11.00;81.90;;;;;;6241047;28;20832;-82
2023/10/26 12:16:31;;;;;;;14.47;13.00;;;11.00;82.20;;;;;;6241859;28;20415;-82
2023/10/26 12:19:34;;;;;;;11.87;10.87;;;11.00;82.20;;;;;;6261066;28;20280;-84
2023/10/26 12:22:39;;;;;;;13.97;12.67;;;11.00;82.50;;;;;;6258819;28;20303;-83
2023/10/26 12:25:42;;;;;;;13.33;11.93;;;11.10;82.70;;;;;;6249503;28;20320;-82
2023/10/26 12:28:51;;;;;;;12.40;11.37;;;11.10;82.60;;;;;;6246482;28;20249;-81
2023/10/26 12:31:54;;;;;;;14.70;12.43;;;11.10;82.20;;;;;;6253129;28;20461;-84
2023/10/26 12:34:58;;;;;;;12.67;11.57;;;11.20;81.70;;;;;;6238651;28;20321;-84
2023/10/26 12:38:01;;;;;;;12.77;11.67;;;11.10;81.50;;;;;;6237973;28;20728;-84
2023/10/26 12:41:04;;;;;;;12.30;11.30;;;11.10;81.60;;;;;;6256826;28;20369;-84
2023/10/26 12:44:09;;;;;;;12.37;11.37;;;11.10;81.70;;;;;;6250999;28;20239;-85
2023/10/26 12:47:12;;;;;;;12.90;11.80;;;11.00;81.90;;;;;;6248109;28;20287;-84
2023/10/26 12:50:16;;;;;;;12.03;11.03;;;11.00;81.80;;;;;;6255007;28;20237;-83
2023/10/26 12:53:19;;;;;;;11.83;10.83;;;11.10;81.50;;;;;;6243697;28;20269;-84
2023/10/26 12:56:23;;;;;;;12.43;11.23;;;11.10;81.60;;;;;;6252201;28;20736;-83
2023/10/26 12:59:27;;;;;;;11.60;10.67;;;11.10;81.50;;;;;;6244491;28;20234;-83
2023/10/26 13:02:31;;;;;;;10.90;10.00;;;11.10;81.60;;;;;;6249580;28;20649;-82
2023/10/26 13:05:34;;;;;;;16.90;11.03;;;11.10;81.60;;;;;;6250532;28;20759;-81
2023/10/26 13:08:37;;;;;;;13.87;12.47;;;11.10;81.40;;;;;;6257965;28;20245;-82
2023/10/26 13:11:41;;;;;;;11.77;10.77;;;11.10;81.50;;;;;;6252961;28;20842;-82
2023/10/26 13:14:45;;;;;;;10.40;9.70;;;11.10;81.50;;;;;;6238988;28;20243;-83
2023/10/26 13:17:52;;;;;;;10.67;9.70;;;11.10;81.50;;;;;;6246455;28;20245;-82
2023/10/26 13:20:55;;;;;;;11.23;10.33;;;11.10;81.30;;;;;;6240288;28;20740;-82
2023/10/26 13:23:59;;;;;;;10.63;9.80;;;11.10;81.40;;;;;;6251745;28;20245;-84
2023/10/26 13:27:02;;;;;;;9.73;9.00;;;11.20;81.40;;;;;;6242844;28;20243;-84
2023/10/26 13:30:09;;;;;;;10.37;9.47;;;11.20;81.30;;;;;;6239770;28;20234;-83
2023/10/26 13:33:12;;;;;;;11.53;10.67;;;11.30;81.10;;;;;;6247620;28;20237;-82
2023/10/26 13:36:15;;;;;;;10.47;9.77;;;11.20;81.10;;;;;;6237504;28;20283;-82
2023/10/26 13:39:19;;;;;;;11.10;10.23;;;11.30;80.70;;;;;;6251334;28;20242;-83
2023/10/26 13:42:22;;;;;;;10.90;10.00;;;11.30;80.30;;;;;;6248038;28;20828;-82
2023/10/26 13:45:27;;;;;;;10.43;9.63;;;11.20;80.20;;;;;;6259572;28;20238;-82
2023/10/26 13:48:30;;;;;;;11.23;10.33;;;11.20;80.30;;;;;;6254657;28;20238;-82
2023/10/26 13:51:34;;;;;;;10.93;10.03;;;11.10;80.40;;;;;;6240923;28;20322;-82
2023/10/26 13:54:37;;;;;;;11.23;10.23;;;11.10;80.60;;;;;;6255677;28;20245;-83
2023/10/26 13:57:40;;;;;;;10.97;10.07;;;11.10;80.60;;;;;;6252210;28;20718;-83
2023/10/26 14:00:45;;;;;;;11.20;10.33;;;11.10;80.50;;;;;;6236634;28;20250;-82
2023/10/26 14:03:48;;;;;;;11.53;10.60;;;11.10;80.70;;;;;;6249995;28;20647;-82
2023/10/26 14:06:52;;;;;;;10.87;9.97;;;11.00;80.70;;;;;;6232840;28;20622;-82
2023/10/26 14:09:57;;;;;;;10.10;9.30;;;11.00;80.70;;;;;;6250892;28;20376;-84
2023/10/26 14:13:01;;;;;;;11.17;10.27;;;11.00;80.80;;;;;;6227778;28;20234;-82
2023/10/26 14:16:09;;;;;;;12.63;11.53;;;11.00;80.50;;;;;;6221068;28;20315;-86
2023/10/26 14:19:12;;;;;;;10.80;10.00;;;11.00;80.60;;;;;;6234856;28;20795;-85
2023/10/26 14:22:16;;;;;;;11.80;10.77;;;10.90;80.70;;;;;;6262834;28;20236;-82
2023/10/26 14:25:19;;;;;;;12.67;11.57;;;10.90;80.70;;;;;;6254433;28;20312;-84
2023/10/26 14:28:22;;;;;;;12.10;11.10;;;10.90;80.70;;;;;;6256335;28;20870;-84
2023/10/26 14:31:27;;;;;;;10.50;9.73;;;10.90;80.70;;;;;;6258250;28;20330;-80
2023/10/26 14:34:30;;;;;;;12.27;11.27;;;10.90;80.90;;;;;;6253996;28;20238;-84
2023/10/26 14:37:34;;;;;;;11.27;10.37;;;10.90;81.20;;;;;;6247175;28;20317;-82
2023/10/26 14:40:38;;;;;;;12.03;11.03;;;10.80;81.20;;;;;;6262000;28;20242;-81
2023/10/26 14:43:42;;;;;;;12.40;11.40;;;10.80;81.30;;;;;;6252381;28;20265;-85
2023/10/26 14:46:46;;;;;;;11.80;10.90;;;10.80;81.50;;;;;;6254539;28;20246;-84
2023/10/26 14:49:50;;;;;;;12.67;11.37;;;10.80;81.50;;;;;;6236595;28;20246;-85
2023/10/26 14:52:53;;;;;;;13.47;12.27;;;10.80;81.50;;;;;;6249492;28;20725;-84
2023/10/26 14:56:01;;;;;;;14.80;13.40;;;10.80;81.50;;;;;;6254891;28;20234;-83
2023/10/26 14:59:05;;;;;;;12.10;11.10;;;10.80;81.60;;;;;;6234892;28;20270;-80
2023/10/26 15:02:10;;;;;;;14.83;13.50;;;10.70;81.70;;;;;;6256622;28;20281;-82
2023/10/26 15:05:13;;;;;;;12.60;11.50;;;10.70;81.60;;;;;;6251232;28;20745;-85
2023/10/26 15:08:17;;;;;;;12.83;11.63;;;10.70;81.60;;;;;;6243422;28;20621;-84
2023/10/26 15:11:21;;;;;;;14.77;13.47;;;10.70;81.70;;;;;;6256598;28;20234;-85
2023/10/26 15:14:27;;;;;;;12.47;11.53;;;10.70;81.70;;;;;;6240238;28;20622;-85
2023/10/26 15:17:32;;;;;;;14.20;12.83;;;10.70;81.70;;;;;;6260180;28;20376;-83
2023/10/26 15:20:35;;;;;;;13.77;12.57;;;10.70;81.60;;;;;;6252372;28;20718;-81
2023/10/26 15:23:38;;;;;;;14.43;13.20;;;10.70;81.70;;;;;;6252135;28;20325;-84
2023/10/26 15:26:41;;;;;;;13.13;11.53;;;10.70;81.80;;;;;;6248568;28;20940;-84
2023/10/26 15:29:45;;;;;;;11.30;10.40;;;10.70;81.80;;;;;;6254102;28;20364;-84
2023/10/26 15:32:49;;;;;;;10.10;9.30;;;10.60;81.70;;;;;;6248396;28;20250;-84
2023/10/26 15:35:53;;;;;;;10.13;9.43;;;10.60;81.50;;;;;;6258653;28;20389;-83
2023/10/26 15:38:58;;;;;;;11.00;10.10;;;10.60;81.50;;;;;;6242025;28;20695;-84
2023/10/26 15:42:01;;;;;;;11.63;10.67;;;10.50;81.50;;;;;;6234310;28;20244;-84
2023/10/26 15:45:06;;;;;;;10.50;9.70;;;10.50;81.50;;;;;;6241592;28;20243;-86
2023/10/26 15:48:10;;;;;;;9.70;8.90;;;10.50;81.40;;;;;;6255074;28;20234;-83